Time;durP1;ratioP1;P1;durP2;ratioP2;P2;SDS_P1;SDS_P2;PMS_P1;PMS_P2;Temp;Humidity;BMP_temperature;BMP_pressure;BME280_temperature;BME280_humidity;BME280_pressure;Samples;Min_cycle;Max_cycle;Signal;HPM_P1;HPM_P2
2022/01/18 00:00:27;;;;;;;60.30;31.83;;;4.40;74.60;;;;;;5073022;28;20487;-21
2022/01/18 00:02:54;;;;;;;59.13;28.15;;;4.40;73.90;;;;;;5073215;28;20510;-20
2022/01/18 00:05:20;;;;;;;49.95;26.30;;;4.40;74.00;;;;;;5073409;28;20380;-21
2022/01/18 00:07:47;;;;;;;70.72;36.83;;;4.30;73.70;;;;;;5072290;28;20489;-21
2022/01/18 00:10:14;;;;;;;63.25;32.67;;;4.30;74.00;;;;;;5073466;28;20028;-21
2022/01/18 00:15:31;;;;;;;70.75;38.00;;;4.20;74.00;;;;;;5073461;28;20032;-20
2022/01/18 00:20:49;;;;;;;37.72;21.00;;;4.10;73.80;;;;;;5072859;28;20373;-21
2022/01/18 00:23:16;;;;;;;44.05;23.63;;;4.10;73.20;;;;;;5073071;28;20134;-20
2022/01/18 00:25:47;;;;;;;70.60;37.38;;;4.10;73.00;;;;;;5072839;28;20049;-21
2022/01/18 00:28:14;;;;;;;67.60;35.35;;;4.10;74.10;;;;;;5073308;28;20029;-20
2022/01/18 00:36:00;;;;;;;31.58;15.75;;;3.90;73.10;;;;;;5073287;28;20566;-21
2022/01/18 00:38:32;;;;;;;52.83;26.83;;;3.90;72.80;;;;;;5072628;28;20067;-21
2022/01/18 00:40:59;;;;;;;44.90;24.10;;;3.90;72.60;;;;;;5073014;28;20061;-21
2022/01/18 00:43:26;;;;;;;45.25;23.55;;;3.80;72.60;;;;;;5072834;28;20025;-20
2022/01/18 00:45:53;;;;;;;82.47;42.55;;;3.80;72.70;;;;;;5072847;28;20495;-21
2022/01/18 00:48:19;;;;;;;68.10;36.72;;;3.70;73.00;;;;;;5071336;28;20024;-20
2022/01/18 00:50:45;;;;;;;65.15;36.85;;;3.70;73.20;;;;;;5072777;28;20427;-21
2022/01/18 00:53:13;;;;;;;59.10;31.23;;;3.60;73.30;;;;;;5076723;28;20074;-20
2022/01/18 00:55:50;;;;;;;50.78;27.38;;;3.60;73.60;;;;;;5076455;28;20492;-21
2022/01/18 00:58:16;;;;;;;83.97;45.95;;;3.60;73.40;;;;;;5076498;28;20031;-21
2022/01/18 01:00:42;;;;;;;51.28;26.35;;;3.50;73.80;;;;;;5076586;28;20028;-20
2022/01/18 01:03:08;;;;;;;54.15;28.70;;;3.50;73.80;;;;;;5077406;28;20028;-21
2022/01/18 01:05:34;;;;;;;54.17;28.80;;;3.50;73.70;;;;;;5076786;28;20023;-21
2022/01/18 01:08:02;;;;;;;51.65;26.67;;;3.50;73.40;;;;;;5076723;28;20507;-20
2022/01/18 01:10:29;;;;;;;36.13;18.10;;;3.50;73.40;;;;;;5076405;28;20089;-20
2022/01/18 01:12:56;;;;;;;56.10;31.65;;;3.50;73.60;;;;;;5076675;28;20024;-20
2022/01/18 01:15:24;;;;;;;79.63;42.28;;;3.60;73.30;;;;;;5076876;28;20032;-20
2022/01/18 01:18:11;;;;;;;52.47;25.95;;;3.50;73.70;;;;;;5076618;28;20083;-21
2022/01/18 01:32:22;;;;;;;36.30;19.63;;;3.40;75.10;;;;;;5076339;28;20077;-21
2022/01/18 01:45:27;;;;;;;33.80;19.17;;;3.20;72.80;;;;;;5075888;28;20025;-21
2022/01/18 01:47:56;;;;;;;27.45;14.18;;;3.20;72.80;;;;;;5075641;28;20036;-20
2022/01/18 01:50:26;;;;;;;59.30;30.95;;;3.10;72.30;;;;;;5075448;28;20040;-19
2022/01/18 01:52:56;;;;;;;56.83;30.00;;;3.10;72.50;;;;;;5075673;28;20059;-20
2022/01/18 01:55:24;;;;;;;58.28;32.00;;;3.10;72.70;;;;;;5075303;28;20496;-20
2022/01/18 01:57:51;;;;;;;59.85;32.08;;;3.00;72.80;;;;;;5075772;28;20469;-20
2022/01/18 02:00:20;;;;;;;35.50;19.20;;;3.00;72.70;;;;;;5075387;28;20028;-20
2022/01/18 02:02:47;;;;;;;24.27;13.27;;;2.90;72.60;;;;;;5075010;28;20065;-20
2022/01/18 02:05:14;;;;;;;38.75;20.48;;;2.90;72.40;;;;;;5075135;28;20035;-20
2022/01/18 02:07:40;;;;;;;36.42;19.08;;;2.80;72.30;;;;;;5075687;28;20027;-20
2022/01/18 02:10:09;;;;;;;57.05;31.85;;;2.80;72.70;;;;;;5075461;28;20384;-21
2022/01/18 02:12:39;;;;;;;41.95;22.15;;;2.70;72.70;;;;;;5074967;28;20086;-20
2022/01/18 02:15:17;;;;;;;66.80;35.25;;;2.60;72.60;;;;;;5075215;28;20028;-20
2022/01/18 02:23:23;;;;;;;42.40;22.25;;;2.40;73.30;;;;;;5075565;28;20031;-20
2022/01/18 02:25:50;;;;;;;47.00;24.52;;;2.40;73.60;;;;;;5075230;28;20025;-20
2022/01/18 02:28:19;;;;;;;52.35;25.40;;;2.40;73.10;;;;;;5074788;28;20108;-20
2022/01/18 02:30:46;;;;;;;37.58;18.48;;;2.40;73.00;;;;;;5075200;28;20025;-20
2022/01/18 02:33:13;;;;;;;55.53;31.42;;;2.40;72.90;;;;;;5074824;28;20423;-20
2022/01/18 02:35:39;;;;;;;27.48;14.90;;;2.40;73.10;;;;;;5074798;28;20035;-20
2022/01/18 02:38:05;;;;;;;62.95;33.38;;;2.30;73.00;;;;;;5075147;28;20028;-21
2022/01/18 02:40:32;;;;;;;50.85;26.33;;;2.30;73.40;;;;;;5074565;28;20504;-21
2022/01/18 02:43:46;;;;;;;46.30;23.85;;;2.40;73.20;;;;;;5074649;28;20035;-20
2022/01/18 02:45:47;;;;;;;37.17;19.45;;;2.30;73.40;;;;;;5074472;28;20511;-21
2022/01/18 02:48:14;;;;;;;46.25;24.45;;;2.30;73.00;;;;;;5074853;28;20111;-21
2022/01/18 02:50:40;;;;;;;71.80;38.30;;;2.30;73.00;;;;;;5075073;28;20025;-21
2022/01/18 02:53:06;;;;;;;33.13;17.50;;;2.30;73.90;;;;;;5074861;28;20127;-20
2022/01/18 02:55:32;;;;;;;33.85;18.75;;;2.20;73.30;;;;;;5074356;28;20491;-20
2022/01/18 02:58:04;;;;;;;55.53;29.60;;;2.20;73.00;;;;;;5074413;28;20491;-21
2022/01/18 03:00:43;;;;;;;22.10;11.40;;;2.20;73.00;;;;;;5074125;28;20028;-20
2022/01/18 03:03:14;;;;;;;21.40;10.68;;;2.10;72.60;;;;;;5074320;28;20082;-21
2022/01/18 03:05:45;;;;;;;28.83;14.88;;;2.10;72.40;;;;;;5074298;28;20047;-21
2022/01/18 03:08:12;;;;;;;31.25;16.25;;;2.00;72.20;;;;;;5074268;28;20020;-21
2022/01/18 03:10:40;;;;;;;18.05;8.88;;;2.00;72.20;;;;;;5073917;28;20020;-21
2022/01/18 03:13:07;;;;;;;36.10;19.25;;;1.90;72.10;;;;;;5074278;28;20031;-20
2022/01/18 03:15:35;;;;;;;25.73;13.27;;;1.90;72.20;;;;;;5073597;28;20031;-21
2022/01/18 03:18:02;;;;;;;19.85;10.48;;;1.90;72.20;;;;;;5074327;28;20032;-21
2022/01/18 03:20:29;;;;;;;48.53;26.45;;;1.90;72.10;;;;;;5073702;28;20024;-21
2022/01/18 03:22:56;;;;;;;85.70;42.72;;;1.80;72.60;;;;;;5074066;28;20033;-21
2022/01/18 03:28:04;;;;;;;76.28;38.17;;;1.70;77.10;;;;;;5073824;28;20115;-21
2022/01/18 03:30:32;;;;;;;66.25;34.28;;;1.70;78.00;;;;;;5073815;28;20025;-21
2022/01/18 03:32:58;;;;;;;69.80;36.90;;;1.70;77.60;;;;;;5074001;28;20025;-21
2022/01/18 03:35:24;;;;;;;66.32;35.40;;;1.70;77.30;;;;;;5073977;28;20035;-21
2022/01/18 03:37:51;;;;;;;49.97;27.38;;;1.70;76.30;;;;;;5073540;28;20066;-20
2022/01/18 03:40:18;;;;;;;65.25;33.50;;;1.70;76.00;;;;;;5073367;28;20032;-21
2022/01/18 03:42:48;;;;;;;70.38;36.70;;;1.70;75.70;;;;;;5073696;28;20035;-21
2022/01/18 03:45:25;;;;;;;64.63;34.03;;;1.70;75.40;;;;;;5073505;28;20025;-21
2022/01/18 03:47:54;;;;;;;61.78;31.50;;;1.70;75.60;;;;;;5073818;28;20024;-20
2022/01/18 03:50:20;;;;;;;63.97;31.98;;;1.70;75.80;;;;;;5073157;28;20044;-20
2022/01/18 03:52:47;;;;;;;41.20;21.10;;;1.70;76.30;;;;;;5073377;28;20554;-21
2022/01/18 03:55:18;;;;;;;58.97;30.40;;;1.60;75.60;;;;;;5073673;28;20094;-21
2022/01/18 03:57:44;;;;;;;54.72;28.73;;;1.60;75.30;;;;;;5073569;28;20025;-20
2022/01/18 04:00:17;;;;;;;59.28;31.55;;;1.60;75.50;;;;;;5073295;28;20028;-21
2022/01/18 04:02:43;;;;;;;28.27;14.20;;;1.60;75.20;;;;;;5073470;28;20108;-20
2022/01/18 04:05:10;;;;;;;50.53;27.80;;;1.60;74.60;;;;;;5073226;28;20498;-20
2022/01/18 04:07:36;;;;;;;55.72;29.33;;;1.70;74.70;;;;;;5073246;28;20048;-20
2022/01/18 04:10:05;;;;;;;63.88;32.35;;;1.70;74.90;;;;;;5073764;28;20025;-20
2022/01/18 04:12:31;;;;;;;55.97;29.23;;;1.60;75.10;;;;;;5072837;28;20035;-21
2022/01/18 04:15:00;;;;;;;56.45;29.48;;;1.70;75.80;;;;;;5073205;28;20021;-21
2022/01/18 04:28:26;;;;;;;52.53;27.00;;;1.60;76.20;;;;;;5073187;28;20039;-21
2022/01/18 04:30:52;;;;;;;54.67;28.52;;;1.60;77.10;;;;;;5073367;28;20519;-21
2022/01/18 04:33:19;;;;;;;49.42;27.83;;;1.60;77.10;;;;;;5073312;28;20024;-21
2022/01/18 04:35:45;;;;;;;53.85;27.67;;;1.50;77.00;;;;;;5073187;28;20028;-21
2022/01/18 04:38:11;;;;;;;41.05;22.20;;;1.60;77.00;;;;;;5072900;28;20031;-21
2022/01/18 04:40:44;;;;;;;32.50;16.15;;;1.60;76.60;;;;;;5072533;28;20033;-21
2022/01/18 04:43:24;;;;;;;22.35;11.07;;;1.60;75.60;;;;;;5072744;28;20433;-20
2022/01/18 04:48:36;;;;;;;37.05;20.10;;;1.70;75.20;;;;;;5073222;28;20143;-21
2022/01/18 04:51:08;;;;;;;42.83;22.42;;;1.70;74.80;;;;;;5073197;28;20078;-21
2022/01/18 04:53:48;;;;;;;38.15;20.83;;;1.70;74.30;;;;;;5072813;28;20029;-20
2022/01/18 04:56:18;;;;;;;27.77;15.00;;;1.70;74.20;;;;;;5072269;28;20045;-21
2022/01/18 04:58:45;;;;;;;26.55;14.35;;;1.70;74.20;;;;;;5072714;28;20484;-21
2022/01/18 05:01:12;;;;;;;39.55;20.73;;;1.70;74.10;;;;;;5072954;28;20110;-20
2022/01/18 05:03:39;;;;;;;28.30;15.82;;;1.70;74.10;;;;;;5073113;28;20076;-20
2022/01/18 05:06:12;;;;;;;24.15;13.95;;;1.60;73.70;;;;;;5072889;28;20056;-20
2022/01/18 05:08:40;;;;;;;19.27;10.00;;;1.60;73.60;;;;;;5072516;28;20473;-20
2022/01/18 05:11:09;;;;;;;26.50;14.43;;;1.60;73.40;;;;;;5072519;28;20025;-20
2022/01/18 05:13:58;;;;;;;21.15;10.75;;;1.50;73.30;;;;;;5072865;28;20125;-19
2022/01/18 05:23:55;;;;;;;25.30;13.63;;;1.40;73.30;;;;;;5072859;28;20036;-20
2022/01/18 05:26:24;;;;;;;21.42;11.32;;;1.40;73.30;;;;;;5072163;28;20362;-20
2022/01/18 05:28:51;;;;;;;41.97;21.10;;;1.40;73.30;;;;;;5072456;28;20447;-20
2022/01/18 05:31:17;;;;;;;25.35;12.85;;;1.40;73.30;;;;;;5072707;28;20055;-19
2022/01/18 05:33:46;;;;;;;37.97;19.15;;;1.40;73.30;;;;;;5072328;28;20024;-20
2022/01/18 05:36:14;;;;;;;25.35;12.32;;;1.40;73.50;;;;;;5072574;28;20491;-20
2022/01/18 05:38:40;;;;;;;23.63;11.90;;;1.40;73.70;;;;;;5074510;28;20033;-19
2022/01/18 05:41:08;;;;;;;32.28;14.20;;;1.40;73.70;;;;;;5075985;28;20028;-19
2022/01/18 05:43:35;;;;;;;14.68;7.88;;;1.40;73.30;;;;;;5076094;28;20439;-19
2022/01/18 05:46:02;;;;;;;24.70;13.13;;;1.40;73.10;;;;;;5075803;28;20086;-20
2022/01/18 05:48:30;;;;;;;31.48;17.73;;;1.40;73.30;;;;;;5075537;28;20388;-20
2022/01/18 05:50:59;;;;;;;39.03;20.92;;;1.40;73.90;;;;;;5075975;28;20017;-20
2022/01/18 05:53:27;;;;;;;23.95;13.25;;;1.40;74.70;;;;;;5075617;28;20074;-19
2022/01/18 05:55:53;;;;;;;21.52;12.70;;;1.40;73.90;;;;;;5075290;28;20087;-20
2022/01/18 05:58:19;;;;;;;19.23;9.68;;;1.30;73.60;;;;;;5075652;28;20111;-20
2022/01/18 06:00:52;;;;;;;29.98;15.75;;;1.30;73.30;;;;;;5076052;28;20021;-20
2022/01/18 06:03:27;;;;;;;30.25;15.57;;;1.30;73.10;;;;;;5075521;28;20036;-20
2022/01/18 06:08:42;;;;;;;34.35;18.35;;;1.20;73.00;;;;;;5075725;28;20075;-19
2022/01/18 06:11:09;;;;;;;22.20;12.23;;;1.20;73.00;;;;;;5075735;28;20426;-20
2022/01/18 06:13:35;;;;;;;31.48;16.77;;;1.10;72.90;;;;;;5075643;28;20029;-19
2022/01/18 06:16:10;;;;;;;22.23;11.88;;;1.10;72.90;;;;;;5075552;28;20028;-19
2022/01/18 06:18:36;;;;;;;26.17;13.93;;;1.10;72.80;;;;;;5075316;28;20099;-20
2022/01/18 06:21:02;;;;;;;40.83;21.70;;;1.00;72.90;;;;;;5075505;28;20488;-19
2022/01/18 06:23:28;;;;;;;13.65;7.30;;;1.00;72.80;;;;;;5073863;28;20437;-20
2022/01/18 06:25:54;;;;;;;47.13;24.70;;;1.00;72.90;;;;;;5074937;28;20540;-19
2022/01/18 06:28:20;;;;;;;26.55;13.88;;;1.00;73.20;;;;;;5073465;28;20028;-19
2022/01/18 06:30:49;;;;;;;38.25;19.48;;;1.00;73.00;;;;;;5075232;28;20028;-20
2022/01/18 06:33:15;;;;;;;36.72;21.48;;;1.00;73.70;;;;;;5074857;28;20029;-20
2022/01/18 06:35:41;;;;;;;26.05;13.60;;;1.00;74.00;;;;;;5075170;28;20488;-19
2022/01/18 06:38:08;;;;;;;26.17;14.32;;;1.00;73.70;;;;;;5075008;28;20028;-19
2022/01/18 06:40:34;;;;;;;17.23;8.75;;;0.90;73.50;;;;;;5074588;28;20029;-19
2022/01/18 06:43:00;;;;;;;26.58;13.82;;;0.90;73.20;;;;;;5074913;28;20075;-19
2022/01/18 06:45:26;;;;;;;26.95;14.77;;;0.90;72.90;;;;;;5075480;28;20056;-19
2022/01/18 06:47:52;;;;;;;31.27;14.63;;;0.90;73.80;;;;;;5074607;28;20030;-19
2022/01/18 06:50:18;;;;;;;16.90;8.75;;;0.90;73.30;;;;;;5073697;28;20060;-19
2022/01/18 06:52:44;;;;;;;37.83;18.27;;;0.90;72.90;;;;;;5074523;28;20052;-19
2022/01/18 06:55:12;;;;;;;25.80;13.38;;;0.90;72.90;;;;;;5074227;28;20080;-19
2022/01/18 06:57:38;;;;;;;29.05;14.20;;;0.80;73.10;;;;;;5074405;28;20031;-19
2022/01/18 07:00:06;;;;;;;29.67;14.18;;;0.80;73.00;;;;;;5074692;28;20055;-20
2022/01/18 07:02:32;;;;;;;27.17;13.65;;;0.80;72.90;;;;;;5074017;28;20492;-19
2022/01/18 07:05:00;;;;;;;15.93;8.00;;;0.80;72.90;;;;;;5074245;28;20076;-19
2022/01/18 07:07:26;;;;;;;20.52;12.35;;;0.80;72.80;;;;;;5074195;28;20060;-20
2022/01/18 07:09:51;;;;;;;30.42;15.15;;;0.80;72.80;;;;;;5074484;28;20033;-20
2022/01/18 07:12:18;;;;;;;19.38;9.77;;;0.80;73.00;;;;;;5073876;28;20392;-20
2022/01/18 07:14:45;;;;;;;22.90;11.98;;;0.80;72.80;;;;;;5072804;28;20021;-20
2022/01/18 07:17:11;;;;;;;20.73;11.80;;;0.90;72.70;;;;;;5074024;28;20078;-20
2022/01/18 07:19:38;;;;;;;23.23;10.75;;;0.90;73.00;;;;;;5074288;28;20047;-20
2022/01/18 07:22:05;;;;;;;13.98;8.13;;;0.90;72.60;;;;;;5074171;28;20035;-20
2022/01/18 07:24:43;;;;;;;24.90;12.70;;;1.00;72.80;;;;;;5073742;28;20056;-20
2022/01/18 07:27:11;;;;;;;11.15;6.28;;;1.00;72.80;;;;;;5073620;28;20456;-20
2022/01/18 07:29:38;;;;;;;24.27;13.25;;;1.00;72.40;;;;;;5073751;28;20435;-20
2022/01/18 07:32:08;;;;;;;21.92;14.00;;;1.10;72.50;;;;;;5073813;28;20100;-19
2022/01/18 07:34:39;;;;;;;12.48;6.28;;;1.20;72.30;;;;;;5073559;28;20113;-20
2022/01/18 07:37:06;;;;;;;11.82;6.00;;;1.20;72.30;;;;;;5072101;28;20028;-19
2022/01/18 07:39:33;;;;;;;11.30;5.95;;;1.30;72.40;;;;;;5073899;28;20033;-20
2022/01/18 07:42:00;;;;;;;14.45;7.18;;;1.40;72.20;;;;;;5073638;28;20361;-20
2022/01/18 07:44:26;;;;;;;46.38;23.50;;;1.40;72.00;;;;;;5073594;28;20035;-20
2022/01/18 07:46:53;;;;;;;42.08;23.27;;;1.50;72.80;;;;;;5073808;28;20059;-20
2022/01/18 07:49:19;;;;;;;26.13;13.32;;;1.50;72.50;;;;;;5073694;28;20477;-20
2022/01/18 07:51:45;;;;;;;25.42;14.35;;;1.60;72.20;;;;;;5073454;28;20025;-20
2022/01/18 07:54:11;;;;;;;30.42;16.38;;;1.80;72.80;;;;;;5072518;28;20028;-20
2022/01/18 07:56:41;;;;;;;29.67;15.98;;;1.90;73.00;;;;;;5072899;28;20514;-19
2022/01/18 07:59:09;;;;;;;51.25;28.15;;;2.00;72.80;;;;;;5073308;28;20085;-20
2022/01/18 08:01:35;;;;;;;25.65;15.18;;;2.10;74.00;;;;;;5072298;28;20032;-20
2022/01/18 08:04:01;;;;;;;29.35;15.32;;;2.20;72.90;;;;;;5073536;28;20024;-20
2022/01/18 08:06:27;;;;;;;16.77;8.23;;;2.30;72.50;;;;;;5071784;28;20021;-20
2022/01/18 08:08:54;;;;;;;17.00;9.02;;;2.40;72.40;;;;;;5071959;28;20464;-20
2022/01/18 08:11:20;;;;;;;21.35;13.60;;;2.50;72.10;;;;;;5071844;28;20016;-20
2022/01/18 08:13:48;;;;;;;28.98;15.05;;;2.60;72.00;;;;;;5071879;28;20031;-19
2022/01/18 08:18:56;;;;;;;22.75;11.18;;;2.70;71.80;;;;;;5073222;28;20059;-20
2022/01/18 08:21:23;;;;;;;14.27;7.43;;;2.80;71.80;;;;;;5072923;28;20504;-21
2022/01/18 08:23:50;;;;;;;14.00;7.78;;;2.90;71.70;;;;;;5073437;28;20103;-21
2022/01/18 08:26:17;;;;;;;16.15;8.43;;;3.00;71.90;;;;;;5073081;28;20028;-21
2022/01/18 08:28:43;;;;;;;42.65;23.35;;;3.20;71.70;;;;;;5073308;28;20037;-20
2022/01/18 08:31:09;;;;;;;21.38;12.38;;;3.30;72.60;;;;;;5073239;28;20104;-20
2022/01/18 08:33:35;;;;;;;18.63;10.52;;;3.50;72.40;;;;;;5073269;28;20060;-20
2022/01/18 08:36:04;;;;;;;20.33;10.85;;;3.70;72.10;;;;;;5073189;28;20028;-21
2022/01/18 08:38:30;;;;;;;21.15;11.68;;;3.90;71.30;;;;;;5072728;28;20468;-20
2022/01/18 08:40:59;;;;;;;25.27;15.55;;;4.20;71.00;;;;;;5073093;28;20129;-20
2022/01/18 08:43:32;;;;;;;18.33;10.75;;;4.40;71.20;;;;;;5073073;28;20031;-21
2022/01/18 08:46:05;;;;;;;17.52;10.88;;;4.60;70.80;;;;;;5072950;28;20021;-21
2022/01/18 08:48:32;;;;;;;22.38;13.25;;;4.80;69.50;;;;;;5073304;28;20024;-20
2022/01/18 08:50:59;;;;;;;16.17;9.55;;;5.10;69.70;;;;;;5072837;28;20136;-21
2022/01/18 08:53:26;;;;;;;18.92;10.90;;;5.30;69.20;;;;;;5072783;28;20432;-21
2022/01/18 08:55:53;;;;;;;20.65;11.73;;;5.50;68.80;;;;;;5072525;28;20063;-21
2022/01/18 08:58:21;;;;;;;33.45;17.05;;;5.80;68.80;;;;;;5072457;28;20028;-21
2022/01/18 09:00:49;;;;;;;14.65;8.02;;;6.00;68.30;;;;;;5072657;28;20109;-21
2022/01/18 09:03:15;;;;;;;20.45;11.68;;;6.30;67.60;;;;;;5073010;28;20029;-21
2022/01/18 09:05:44;;;;;;;17.73;9.57;;;6.60;67.20;;;;;;5072654;28;20150;-21
2022/01/18 09:08:12;;;;;;;17.98;9.40;;;6.80;66.90;;;;;;5072626;28;20028;-21
2022/01/18 09:10:44;;;;;;;18.10;11.20;;;7.10;66.60;;;;;;5072383;28;20033;-21
2022/01/18 09:13:11;;;;;;;12.52;6.75;;;7.40;65.90;;;;;;5074150;28;20070;-20
2022/01/18 09:15:37;;;;;;;17.17;10.20;;;7.70;65.40;;;;;;5076727;28;20028;-20
2022/01/18 09:18:03;;;;;;;14.52;7.13;;;7.90;65.00;;;;;;5075122;28;20484;-21
2022/01/18 09:20:30;;;;;;;19.50;12.07;;;8.20;64.60;;;;;;5076070;28;20024;-20
2022/01/18 09:22:57;;;;;;;21.05;12.63;;;8.50;64.20;;;;;;5076461;28;20025;-21
2022/01/18 09:25:27;;;;;;;15.05;7.72;;;8.80;63.10;;;;;;5074954;28;20040;-21
2022/01/18 09:27:54;;;;;;;11.23;6.55;;;9.10;63.00;;;;;;5076123;28;20070;-21
2022/01/18 09:30:21;;;;;;;16.00;9.57;;;9.30;62.50;;;;;;5076037;28;20033;-21
2022/01/18 09:32:47;;;;;;;19.45;11.18;;;9.60;62.50;;;;;;5076053;28;20024;-21
2022/01/18 09:35:16;;;;;;;14.00;8.05;;;9.90;62.40;;;;;;5076297;28;20063;-21
2022/01/18 09:37:42;;;;;;;20.00;12.15;;;10.10;62.00;;;;;;5076255;28;20032;-21
2022/01/18 09:40:10;;;;;;;17.33;11.65;;;10.40;61.60;;;;;;5075946;28;20465;-21
2022/01/18 09:42:39;;;;;;;18.10;10.88;;;10.60;61.20;;;;;;5075846;28;20037;-21
2022/01/18 09:45:09;;;;;;;18.40;12.07;;;10.90;60.90;;;;;;5076137;28;20377;-21
2022/01/18 09:47:37;;;;;;;22.00;12.77;;;11.10;60.40;;;;;;5075971;28;20056;-21
2022/01/18 09:50:05;;;;;;;17.00;10.35;;;11.40;60.00;;;;;;5074581;28;20105;-21
2022/01/18 09:52:31;;;;;;;15.32;9.90;;;11.60;59.70;;;;;;5074207;28;20481;-21
2022/01/18 09:54:57;;;;;;;17.38;11.23;;;11.80;59.50;;;;;;5075457;28;20048;-21
2022/01/18 09:57:23;;;;;;;15.45;9.75;;;12.00;59.20;;;;;;5075568;28;20389;-21
2022/01/18 09:59:49;;;;;;;15.77;10.13;;;12.30;58.80;;;;;;5075846;28;20066;-20
2022/01/18 10:02:15;;;;;;;15.68;11.27;;;12.40;58.80;;;;;;5074038;28;20024;-21
2022/01/18 10:04:44;;;;;;;19.95;12.68;;;12.60;58.00;;;;;;5075481;28;20036;-20
2022/01/18 10:07:11;;;;;;;21.38;12.95;;;12.80;58.30;;;;;;5075301;28;20028;-22
2022/01/18 10:09:38;;;;;;;22.38;14.25;;;13.00;56.80;;;;;;5074328;28;20427;-20
2022/01/18 10:12:13;;;;;;;17.80;11.43;;;13.20;56.10;;;;;;5075519;28;20052;-20
2022/01/18 10:14:52;;;;;;;21.00;12.73;;;13.30;55.60;;;;;;5074771;28;20021;-21
2022/01/18 10:17:38;;;;;;;21.10;12.95;;;13.50;55.10;;;;;;5075452;28;20381;-21
2022/01/18 10:20:18;;;;;;;19.73;12.43;;;13.70;54.70;;;;;;5075593;28;20141;-20
2022/01/18 10:22:49;;;;;;;16.73;10.63;;;13.90;55.00;;;;;;5075120;28;20038;-20
2022/01/18 10:25:21;;;;;;;18.88;12.57;;;14.00;54.40;;;;;;5074139;28;20028;-20
2022/01/18 10:27:53;;;;;;;20.17;13.07;;;14.10;54.00;;;;;;5075228;28;20025;-21
2022/01/18 10:30:32;;;;;;;21.50;13.23;;;14.20;53.70;;;;;;5075793;28;20025;-21
2022/01/18 10:33:20;;;;;;;20.95;13.68;;;14.40;53.70;;;;;;5075055;28;20021;-20
2022/01/18 10:36:07;;;;;;;20.23;12.90;;;14.50;54.10;;;;;;5074957;28;20027;-21
2022/01/18 10:38:33;;;;;;;18.40;11.80;;;14.70;52.50;;;;;;5074674;28;20496;-20
2022/01/18 10:41:23;;;;;;;16.52;11.60;;;14.90;52.30;;;;;;5074969;28;20027;-20
2022/01/18 10:44:13;;;;;;;20.52;14.18;;;15.10;51.70;;;;;;5074738;28;20036;-20
2022/01/18 10:46:42;;;;;;;18.77;12.77;;;15.30;49.10;;;;;;5074725;28;20500;-20
2022/01/18 10:49:10;;;;;;;21.98;14.40;;;15.50;51.50;;;;;;5073435;28;20028;-20
2022/01/18 10:51:38;;;;;;;21.95;13.80;;;15.80;50.60;;;;;;5074562;28;20082;-20
2022/01/18 10:54:10;;;;;;;19.83;12.70;;;15.90;50.70;;;;;;5074610;28;20056;-20
2022/01/18 10:56:49;;;;;;;20.65;12.55;;;16.00;50.50;;;;;;5074072;28;20052;-20
2022/01/18 10:59:22;;;;;;;22.02;12.68;;;16.10;49.50;;;;;;5074483;28;20025;-20
2022/01/18 11:02:20;;;;;;;20.60;12.75;;;16.20;49.50;;;;;;5074730;28;20048;-20
2022/01/18 11:04:55;;;;;;;22.65;13.85;;;16.40;48.90;;;;;;5074957;28;20040;-20
2022/01/18 11:07:24;;;;;;;22.65;14.82;;;16.40;50.30;;;;;;5074599;28;20060;-20
2022/01/18 11:09:50;;;;;;;22.58;13.30;;;16.40;50.40;;;;;;5074558;28;20024;-20
2022/01/18 11:12:20;;;;;;;20.85;13.43;;;16.50;49.60;;;;;;5074097;28;20021;-20
2022/01/18 11:14:59;;;;;;;23.35;14.73;;;16.60;49.80;;;;;;5074118;28;20036;-21
2022/01/18 11:17:26;;;;;;;21.67;13.50;;;16.80;49.40;;;;;;5074117;28;20107;-20
2022/01/18 11:19:56;;;;;;;20.38;12.98;;;17.00;49.40;;;;;;5074042;28;20033;-20
2022/01/18 11:22:26;;;;;;;20.05;12.82;;;17.10;49.10;;;;;;5074031;28;20028;-20
2022/01/18 11:24:57;;;;;;;19.90;10.73;;;17.30;48.80;;;;;;5074416;28;20035;-21
2022/01/18 11:27:23;;;;;;;17.45;12.10;;;17.40;49.20;;;;;;5074132;28;20035;-20
2022/01/18 11:29:49;;;;;;;19.08;12.10;;;17.70;48.90;;;;;;5073827;28;20028;-21
2022/01/18 11:32:17;;;;;;;17.83;12.68;;;17.90;47.90;;;;;;5073905;28;20016;-20
2022/01/18 11:35:01;;;;;;;17.55;12.73;;;18.20;47.50;;;;;;5073729;28;20032;-20
2022/01/18 11:37:30;;;;;;;;;;;18.50;45.60;;;;;;5074365;28;20024;-21
2022/01/18 11:40:08;;;;;;;17.58;12.15;;;18.80;44.70;;;;;;5073937;28;20268;-20
2022/01/18 11:42:52;;;;;;;17.15;11.68;;;19.20;46.50;;;;;;5073474;28;20071;-21
2022/01/18 11:45:24;;;;;;;17.80;12.20;;;19.50;45.60;;;;;;5073598;28;20082;-21
2022/01/18 11:48:02;;;;;;;21.25;13.38;;;19.90;44.20;;;;;;5073495;28;20062;-20
2022/01/18 11:50:30;;;;;;;22.13;13.90;;;20.20;43.80;;;;;;5073353;28;20032;-21
2022/01/18 11:53:25;;;;;;;16.15;10.35;;;20.50;43.90;;;;;;5073779;28;20372;-20
2022/01/18 12:49:50;;;;;;;9.43;6.10;;;25.30;35.00;;;;;;4320339;28;20132;-20
2022/01/18 12:52:17;;;;;;;6.57;4.35;;;25.10;36.00;;;;;;5076670;28;20451;-20
2022/01/18 12:54:43;;;;;;;7.72;5.05;;;24.80;36.00;;;;;;5075868;28;20427;-20
2022/01/18 12:57:16;;;;;;;8.63;5.80;;;24.50;35.90;;;;;;5076919;28;20384;-20
2022/01/18 13:00:00;;;;;;;7.13;3.65;;;24.30;35.60;;;;;;5076943;28;20028;-20
2022/01/18 13:02:27;;;;;;;6.28;4.60;;;24.40;35.70;;;;;;5076349;28;20033;-20
2022/01/18 13:04:57;;;;;;;11.93;6.50;;;24.50;36.80;;;;;;5076954;28;20104;-20
2022/01/18 13:07:23;;;;;;;9.23;6.00;;;24.70;36.00;;;;;;5076920;28;20023;-20
2022/01/18 13:10:01;;;;;;;6.78;4.22;;;24.90;35.80;;;;;;5076542;28;20033;-20
2022/01/18 13:12:35;;;;;;;6.75;4.78;;;24.90;35.70;;;;;;5076137;28;20396;-20
2022/01/18 13:15:04;;;;;;;8.57;6.00;;;25.00;35.60;;;;;;5076355;28;20027;-20
2022/01/18 13:23:49;;;;;;;8.88;5.28;;;24.20;35.50;;;;;;5076307;28;20159;-20
2022/01/18 13:26:10;;;;;;;8.48;5.80;;;24.00;36.80;;;;;;5076042;28;20037;-20
2022/01/18 13:28:39;;;;;;;9.18;5.78;;;24.00;37.30;;;;;;5076131;28;20028;-20
2022/01/18 13:31:19;;;;;;;6.93;4.68;;;24.00;37.00;;;;;;5076089;28;20030;-20
2022/01/18 13:34:00;;;;;;;8.52;5.95;;;24.20;34.10;;;;;;5076423;28;20082;-20
2022/01/18 13:36:32;;;;;;;9.07;5.32;;;24.40;34.50;;;;;;5075777;28;20024;-20
2022/01/18 13:39:39;;;;;;;9.95;5.68;;;24.70;35.60;;;;;;5076011;28;20489;-20
2022/01/18 13:42:09;;;;;;;10.07;6.15;;;25.00;34.20;;;;;;5075768;28;20037;-20
2022/01/18 13:44:35;;;;;;;7.32;5.25;;;25.40;35.20;;;;;;5075700;28;20100;-20
2022/01/18 13:47:19;;;;;;;7.97;5.30;;;25.50;35.20;;;;;;5076187;28;20107;-20
2022/01/18 13:49:46;;;;;;;8.98;5.80;;;25.80;34.30;;;;;;5075598;28;20048;-20
2022/01/18 13:52:14;;;;;;;10.18;6.38;;;26.00;34.90;;;;;;5075720;28;20481;-20
2022/01/18 13:54:51;;;;;;;10.63;6.90;;;26.20;34.50;;;;;;5076486;28;20499;-20
2022/01/18 13:57:20;;;;;;;9.07;6.28;;;26.30;33.60;;;;;;5075910;28;20051;-20
2022/01/18 13:59:48;;;;;;;10.40;6.18;;;26.40;34.20;;;;;;5075202;28;20154;-20
2022/01/18 14:02:22;;;;;;;11.40;7.50;;;26.40;33.80;;;;;;5075271;28;20104;-21
2022/01/18 14:05:08;;;;;;;10.27;6.05;;;26.50;33.50;;;;;;5075925;28;20032;-20
2022/01/18 14:07:34;;;;;;;10.65;6.45;;;26.40;32.30;;;;;;5076649;28;20051;-20
2022/01/18 14:10:02;;;;;;;9.40;5.53;;;26.40;33.30;;;;;;5075463;28;20476;-20
2022/01/18 14:12:33;;;;;;;9.23;6.00;;;26.40;33.60;;;;;;5075309;28;20027;-20
2022/01/18 14:14:59;;;;;;;9.07;6.28;;;26.30;33.50;;;;;;5075397;28;20070;-20
2022/01/18 14:17:26;;;;;;;9.23;6.38;;;26.30;33.40;;;;;;5075660;28;20056;-20
2022/01/18 14:20:04;;;;;;;10.75;6.72;;;26.30;33.20;;;;;;5075887;28;20028;-20
2022/01/18 14:22:38;;;;;;;9.38;6.30;;;26.30;32.10;;;;;;5075054;28;20040;-20
2022/01/18 14:25:07;;;;;;;8.98;5.70;;;26.20;33.20;;;;;;5075450;28;20473;-20
2022/01/18 14:27:39;;;;;;;7.63;5.28;;;26.20;33.30;;;;;;5075574;28;20025;-20
2022/01/18 14:30:07;;;;;;;11.13;5.93;;;26.10;33.70;;;;;;5075121;28;20153;-20
2022/01/18 14:32:35;;;;;;;9.18;5.22;;;26.10;33.80;;;;;;5075034;28;20111;-19
2022/01/18 14:35:01;;;;;;;7.03;4.95;;;26.10;33.90;;;;;;5075271;28;20029;-20
2022/01/18 14:37:43;;;;;;;11.70;7.10;;;26.20;33.80;;;;;;5074847;28;20434;-20
2022/01/18 14:40:25;;;;;;;9.35;5.72;;;26.20;32.70;;;;;;5075232;28;20037;-20
2022/01/18 14:43:01;;;;;;;8.02;5.05;;;26.10;33.10;;;;;;5075104;28;20052;-20
2022/01/18 14:45:35;;;;;;;10.20;6.07;;;26.10;33.60;;;;;;5074814;28;20039;-20
2022/01/18 14:48:13;;;;;;;9.23;5.35;;;26.10;33.70;;;;;;5074756;28;20070;-20
2022/01/18 14:50:45;;;;;;;7.65;4.78;;;26.00;32.50;;;;;;5074560;28;20046;-20
2022/01/18 14:53:12;;;;;;;10.65;6.53;;;25.90;34.00;;;;;;5074780;28;20381;-20
2022/01/18 14:55:38;;;;;;;8.15;6.13;;;25.90;34.20;;;;;;5074737;28;20013;-20
2022/01/18 14:58:05;;;;;;;8.98;6.22;;;25.90;33.90;;;;;;5074725;28;20056;-20